Time;durP1;ratioP1;P1;durP2;ratioP2;P2;SDS_P1;SDS_P2;PMS_P1;PMS_P2;Temp;Humidity;BMP_temperature;BMP_pressure;BME280_temperature;BME280_humidity;BME280_pressure;Samples;Min_cycle;Max_cycle;Signal;HPM_P1;HPM_P2
2022/07/09 00:00:02;;;;;;;17.65;7.82;;;;;;;;;;5085663;28;20032;-70
2022/07/09 00:02:28;;;;;;;21.10;8.02;;;;;;;;;;5089291;28;20032;-70
2022/07/09 00:04:54;;;;;;;15.43;7.57;;;;;;;;;;5086625;28;20032;-70
2022/07/09 00:07:21;;;;;;;16.25;8.32;;;;;;;;;;5087672;28;20052;-71
2022/07/09 00:09:47;;;;;;;14.18;7.78;;;;;;;;;;5085360;28;20041;-70
2022/07/09 00:12:13;;;;;;;14.32;7.75;;;;;;;;;;5093945;28;20070;-71
2022/07/09 00:14:39;;;;;;;16.40;8.80;;;;;;;;;;5116013;28;20047;-70
2022/07/09 00:17:05;;;;;;;16.60;8.18;;;;;;;;;;5109980;28;20073;-70
2022/07/09 00:19:31;;;;;;;17.58;9.00;;;;;;;;;;5085399;28;20040;-70
2022/07/09 00:21:57;;;;;;;20.67;8.80;;;;;;;;;;5099127;28;20044;-69
2022/07/09 00:24:23;;;;;;;17.70;8.70;;;;;;;;;;5107548;28;20147;-70
2022/07/09 00:26:49;;;;;;;17.02;9.40;;;;;;;;;;5085866;28;20050;-70
2022/07/09 00:29:15;;;;;;;16.75;7.93;;;;;;;;;;5085289;28;20043;-70
2022/07/09 00:31:42;;;;;;;20.70;10.25;;;;;;;;;;5084334;28;20100;-71
2022/07/09 00:34:08;;;;;;;20.75;9.18;;;;;;;;;;5098332;28;20057;-71
2022/07/09 00:36:34;;;;;;;15.98;8.05;;;;;;;;;;5105687;28;20118;-70
2022/07/09 00:39:00;;;;;;;20.10;8.60;;;;;;;;;;5084746;28;20096;-70
2022/07/09 00:41:26;;;;;;;16.15;9.00;;;;;;;;;;5083547;28;20048;-70
2022/07/09 00:43:52;;;;;;;20.88;8.60;;;;;;;;;;5102443;28;20044;-71
2022/07/09 00:46:18;;;;;;;15.98;8.88;;;;;;;;;;5098975;28;20036;-71
2022/07/09 00:48:44;;;;;;;24.60;9.07;;;;;;;;;;5084041;28;20052;-70
2022/07/09 00:51:13;;;;;;;16.88;9.40;;;;;;;;;;5099016;28;20047;-71
2022/07/09 00:53:39;;;;;;;22.42;9.18;;;;;;;;;;5084495;28;20055;-70
2022/07/09 00:56:05;;;;;;;17.27;8.85;;;;;;;;;;5087346;28;20423;-70
2022/07/09 00:58:32;;;;;;;19.45;9.27;;;;;;;;;;5095680;28;20551;-71
2022/07/09 01:00:58;;;;;;;19.45;8.98;;;;;;;;;;5083183;28;20049;-71
2022/07/09 01:03:24;;;;;;;18.77;10.50;;;;;;;;;;5085876;28;20041;-70
2022/07/09 01:05:51;;;;;;;21.40;9.00;;;;;;;;;;5104152;28;20047;-70
2022/07/09 01:08:19;;;;;;;16.45;9.40;;;;;;;;;;5094060;28;20053;-71
2022/07/09 01:10:45;;;;;;;16.05;8.07;;;;;;;;;;5084895;28;20053;-71
2022/07/09 01:13:12;;;;;;;19.95;9.82;;;;;;;;;;5101567;28;20043;-71
2022/07/09 01:15:38;;;;;;;16.60;9.75;;;;;;;;;;5087348;28;20052;-70
2022/07/09 01:18:04;;;;;;;16.98;8.50;;;;;;;;;;5083986;28;20055;-70
2022/07/09 01:20:30;;;;;;;16.77;9.25;;;;;;;;;;5085745;28;20075;-70
2022/07/09 01:22:57;;;;;;;20.38;9.13;;;;;;;;;;5105164;28;20071;-71
2022/07/09 01:25:35;;;;;;;15.85;7.90;;;;;;;;;;5097491;28;20037;-71
2022/07/09 01:28:01;;;;;;;18.08;8.50;;;;;;;;;;5116722;28;20044;-71
2022/07/09 01:30:28;;;;;;;20.67;9.15;;;;;;;;;;5084484;28;20052;-70
2022/07/09 01:32:55;;;;;;;17.83;8.43;;;;;;;;;;5090521;28;20031;-71
2022/07/09 01:35:21;;;;;;;19.70;9.20;;;;;;;;;;5096539;28;20244;-70
2022/07/09 01:37:47;;;;;;;22.45;8.95;;;;;;;;;;5101976;28;20065;-70
2022/07/09 01:40:14;;;;;;;16.30;8.77;;;;;;;;;;5095087;28;20045;-71
2022/07/09 01:42:40;;;;;;;23.92;9.80;;;;;;;;;;5086507;28;20049;-71
2022/07/09 01:45:06;;;;;;;18.42;9.60;;;;;;;;;;5108096;28;20056;-70
2022/07/09 01:47:33;;;;;;;16.75;8.30;;;;;;;;;;5097636;28;20052;-70
2022/07/09 01:49:59;;;;;;;14.93;7.45;;;;;;;;;;5084850;28;20040;-70
2022/07/09 01:52:25;;;;;;;20.42;9.18;;;;;;;;;;5083964;28;20264;-70
2022/07/09 01:54:52;;;;;;;28.00;10.43;;;;;;;;;;5086774;28;20127;-70
2022/07/09 01:57:18;;;;;;;17.23;8.55;;;;;;;;;;5082811;28;20052;-71
2022/07/09 01:59:44;;;;;;;23.50;9.40;;;;;;;;;;5084182;28;20435;-71
2022/07/09 02:02:10;;;;;;;17.02;9.85;;;;;;;;;;5083612;28;20044;-71
2022/07/09 02:04:36;;;;;;;19.90;9.40;;;;;;;;;;5102785;28;20114;-70
2022/07/09 02:07:02;;;;;;;21.27;10.25;;;;;;;;;;5089818;28;20077;-70
2022/07/09 02:09:28;;;;;;;14.98;9.10;;;;;;;;;;5092604;28;20044;-70
2022/07/09 02:11:54;;;;;;;25.85;10.45;;;;;;;;;;5090582;28;20101;-71
2022/07/09 02:14:20;;;;;;;21.80;9.23;;;;;;;;;;5102738;28;20505;-70
2022/07/09 02:16:47;;;;;;;22.13;9.20;;;;;;;;;;5087092;28;20055;-70
2022/07/09 02:19:13;;;;;;;21.23;9.05;;;;;;;;;;5087645;28;20484;-70
2022/07/09 02:21:40;;;;;;;24.77;8.48;;;;;;;;;;5087508;28;20054;-70
2022/07/09 02:24:06;;;;;;;19.17;8.43;;;;;;;;;;5100579;28;20569;-70
2022/07/09 02:26:32;;;;;;;19.73;9.48;;;;;;;;;;5087270;28;20041;-70
2022/07/09 02:28:58;;;;;;;19.60;8.55;;;;;;;;;;5087328;28;20074;-70
2022/07/09 02:31:25;;;;;;;20.13;8.75;;;;;;;;;;5086132;28;20048;-70
2022/07/09 02:33:51;;;;;;;17.17;8.35;;;;;;;;;;5104701;28;20051;-71
2022/07/09 02:36:17;;;;;;;17.88;8.73;;;;;;;;;;5099710;28;20041;-70
2022/07/09 02:38:43;;;;;;;25.77;7.47;;;;;;;;;;5086973;28;20048;-70
2022/07/09 02:41:09;;;;;;;18.50;7.35;;;;;;;;;;5087124;28;20068;-70
2022/07/09 02:43:35;;;;;;;21.80;7.57;;;;;;;;;;5101880;28;20040;-69
2022/07/09 02:46:03;;;;;;;18.42;6.88;;;;;;;;;;5091059;28;20469;-69
2022/07/09 02:48:30;;;;;;;17.95;8.35;;;;;;;;;;5085203;28;20044;-69
2022/07/09 02:50:56;;;;;;;12.90;6.72;;;;;;;;;;5085790;28;20078;-69
2022/07/09 02:53:22;;;;;;;19.83;7.03;;;;;;;;;;5095175;28;20039;-69
2022/07/09 02:55:48;;;;;;;18.55;7.25;;;;;;;;;;5111154;28;20048;-70
2022/07/09 02:58:14;;;;;;;20.10;7.10;;;;;;;;;;5092029;28;20063;-69
2022/07/09 03:00:41;;;;;;;21.77;7.40;;;;;;;;;;5094598;28;20041;-69
2022/07/09 03:03:07;;;;;;;18.52;6.55;;;;;;;;;;5104729;28;20661;-69
2022/07/09 03:05:34;;;;;;;17.77;6.95;;;;;;;;;;5105419;28;20048;-69
2022/07/09 03:08:01;;;;;;;16.55;6.93;;;;;;;;;;5100606;28;20064;-70
2022/07/09 03:10:27;;;;;;;14.30;6.40;;;;;;;;;;5086714;28;20044;-69
2022/07/09 03:12:53;;;;;;;19.95;6.93;;;;;;;;;;5095518;28;20052;-69
2022/07/09 03:15:19;;;;;;;17.17;6.95;;;;;;;;;;5106014;28;20041;-69
2022/07/09 03:17:46;;;;;;;14.75;6.57;;;;;;;;;;5095402;28;20070;-69
2022/07/09 03:20:13;;;;;;;17.10;6.55;;;;;;;;;;5090665;28;20055;-69
2022/07/09 03:22:39;;;;;;;12.57;6.43;;;;;;;;;;5085982;28;20104;-69
2022/07/09 03:25:05;;;;;;;14.95;6.80;;;;;;;;;;5108568;28;20044;-69
2022/07/09 03:27:31;;;;;;;18.70;6.85;;;;;;;;;;5086064;28;20044;-69
2022/07/09 03:29:58;;;;;;;17.30;6.65;;;;;;;;;;5086249;28;20044;-69
2022/07/09 03:32:24;;;;;;;20.77;7.30;;;;;;;;;;5085532;28;20083;-70
2022/07/09 03:34:52;;;;;;;18.40;6.65;;;;;;;;;;5097451;28;20100;-70
2022/07/09 03:37:18;;;;;;;16.70;7.68;;;;;;;;;;5102846;28;20093;-68
2022/07/09 03:39:44;;;;;;;13.25;6.57;;;;;;;;;;5086180;28;20096;-69
2022/07/09 03:42:11;;;;;;;13.00;7.53;;;;;;;;;;5088122;28;20792;-70
2022/07/09 03:44:37;;;;;;;16.10;6.90;;;;;;;;;;5099268;28;20115;-69
2022/07/09 03:47:03;;;;;;;15.27;6.55;;;;;;;;;;5085226;28;20047;-70
2022/07/09 03:49:29;;;;;;;23.80;7.47;;;;;;;;;;5090424;28;20050;-70
2022/07/09 03:51:56;;;;;;;10.55;5.95;;;;;;;;;;5095335;28;20055;-69
2022/07/09 03:54:22;;;;;;;16.05;7.10;;;;;;;;;;5102531;28;20040;-70
2022/07/09 03:56:48;;;;;;;12.50;6.60;;;;;;;;;;5085744;28;20045;-70
2022/07/09 03:59:14;;;;;;;15.88;7.03;;;;;;;;;;5084300;28;20063;-69
2022/07/09 04:01:41;;;;;;;12.70;6.72;;;;;;;;;;5083772;28;20145;-71
2022/07/09 04:04:07;;;;;;;16.85;5.95;;;;;;;;;;5102821;28;20057;-69
2022/07/09 04:06:33;;;;;;;19.70;7.28;;;;;;;;;;5086264;28;20045;-70
2022/07/09 04:09:03;;;;;;;15.48;6.25;;;;;;;;;;5085296;28;20056;-69
2022/07/09 04:11:30;;;;;;;9.15;5.97;;;;;;;;;;5085086;28;20063;-69
2022/07/09 04:13:56;;;;;;;10.63;6.55;;;;;;;;;;5087421;28;20040;-70
2022/07/09 04:16:22;;;;;;;15.52;6.50;;;;;;;;;;5083809;28;20059;-69
2022/07/09 04:18:48;;;;;;;13.02;7.47;;;;;;;;;;5087442;28;20044;-69
2022/07/09 04:21:16;;;;;;;17.00;6.75;;;;;;;;;;5094165;28;20044;-69
2022/07/09 04:23:42;;;;;;;;;;;;;;;;;;5089981;28;20047;-69
2022/07/09 04:26:09;;;;;;;16.15;6.13;;;;;;;;;;5085023;28;20029;-69
2022/07/09 04:28:37;;;;;;;22.60;8.45;;;;;;;;;;5099506;28;20135;-70
2022/07/09 04:31:04;;;;;;;13.55;6.32;;;;;;;;;;5105353;28;20100;-70
2022/07/09 04:33:31;;;;;;;10.55;6.45;;;;;;;;;;5104358;28;20052;-69
2022/07/09 04:35:57;;;;;;;16.52;6.85;;;;;;;;;;5085803;28;20111;-69
2022/07/09 04:38:24;;;;;;;13.82;6.35;;;;;;;;;;5084831;28;20401;-69
2022/07/09 04:40:51;;;;;;;13.45;6.07;;;;;;;;;;5084826;28;20507;-70
2022/07/09 04:43:17;;;;;;;12.10;6.28;;;;;;;;;;5094082;28;20104;-70
2022/07/09 04:45:43;;;;;;;13.13;5.57;;;;;;;;;;5084886;28;20052;-69
2022/07/09 04:48:09;;;;;;;11.63;6.03;;;;;;;;;;5095544;28;20123;-70
2022/07/09 04:50:35;;;;;;;13.70;6.03;;;;;;;;;;5098596;28;20511;-69
2022/07/09 04:53:01;;;;;;;12.23;5.80;;;;;;;;;;5098305;28;20033;-69
2022/07/09 04:55:27;;;;;;;10.18;5.60;;;;;;;;;;5084787;28;20044;-70
2022/07/09 04:57:53;;;;;;;12.05;5.32;;;;;;;;;;5084704;28;20064;-70
2022/07/09 05:00:19;;;;;;;14.73;5.60;;;;;;;;;;5092944;28;20040;-69
2022/07/09 05:02:45;;;;;;;10.18;5.43;;;;;;;;;;5103360;28;20055;-70
2022/07/09 05:05:13;;;;;;;8.70;4.72;;;;;;;;;;5084388;28;20043;-69
2022/07/09 05:07:39;;;;;;;;;;;;;;;;;;5083471;28;20124;-69
2022/07/09 05:10:05;;;;;;;11.40;4.93;;;;;;;;;;5084600;28;19924;-69
2022/07/09 05:12:32;;;;;;;11.77;4.93;;;;;;;;;;5103605;28;20046;-69
2022/07/09 05:14:58;;;;;;;11.18;5.10;;;;;;;;;;5095076;28;20048;-69
2022/07/09 05:17:24;;;;;;;13.15;5.13;;;;;;;;;;5096617;28;20040;-70
2022/07/09 05:19:50;;;;;;;9.50;5.57;;;;;;;;;;5084528;28;20436;-69
2022/07/09 05:22:17;;;;;;;10.63;5.10;;;;;;;;;;5087435;28;20089;-68
2022/07/09 05:24:43;;;;;;;10.07;5.38;;;;;;;;;;5084374;28;20059;-71
2022/07/09 05:27:09;;;;;;;14.32;4.85;;;;;;;;;;5085465;28;20063;-70
2022/07/09 05:29:38;;;;;;;12.05;5.45;;;;;;;;;;5095915;28;20040;-70
2022/07/09 05:32:05;;;;;;;11.98;5.07;;;;;;;;;;5087860;28;20506;-70
2022/07/09 05:34:31;;;;;;;9.23;4.70;;;;;;;;;;5084305;28;20032;-70
2022/07/09 05:36:57;;;;;;;8.68;5.22;;;;;;;;;;5082884;28;20052;-70
2022/07/09 05:39:24;;;;;;;7.60;4.93;;;;;;;;;;5084095;28;20055;-70
2022/07/09 05:41:50;;;;;;;14.95;5.28;;;;;;;;;;5084637;28;20302;-70
2022/07/09 05:44:16;;;;;;;14.70;5.25;;;;;;;;;;5089593;28;20043;-70
2022/07/09 05:46:42;;;;;;;14.13;5.13;;;;;;;;;;5086423;28;20599;-71
2022/07/09 05:49:08;;;;;;;8.15;4.53;;;;;;;;;;5086798;28;20044;-71
2022/07/09 05:51:36;;;;;;;10.48;5.28;;;;;;;;;;5087872;28;20053;-70
2022/07/09 05:54:03;;;;;;;15.77;4.93;;;;;;;;;;5097720;28;20058;-70
2022/07/09 05:56:29;;;;;;;12.20;5.07;;;;;;;;;;5088191;28;20052;-70
2022/07/09 05:58:55;;;;;;;9.60;4.80;;;;;;;;;;5087946;28;20048;-70
2022/07/09 06:01:21;;;;;;;9.65;4.70;;;;;;;;;;5098875;28;20048;-70
2022/07/09 06:03:47;;;;;;;9.13;4.65;;;;;;;;;;5086038;28;20040;-70
2022/07/09 06:06:13;;;;;;;11.27;4.90;;;;;;;;;;5086646;28;20044;-70
2022/07/09 06:08:39;;;;;;;10.30;4.55;;;;;;;;;;5087156;28;20072;-69
2022/07/09 06:11:06;;;;;;;11.15;4.40;;;;;;;;;;5084766;28;20057;-70
2022/07/09 06:13:32;;;;;;;10.00;4.82;;;;;;;;;;5103486;28;20511;-70
2022/07/09 06:15:58;;;;;;;7.18;4.15;;;;;;;;;;5087827;28;20041;-70
2022/07/09 06:18:24;;;;;;;9.55;4.40;;;;;;;;;;5102409;28;20044;-70
2022/07/09 06:20:50;;;;;;;9.82;4.32;;;;;;;;;;5098436;28;20040;-70
2022/07/09 06:23:16;;;;;;;9.48;3.92;;;;;;;;;;5102127;28;20040;-69
2022/07/09 06:25:42;;;;;;;9.48;4.53;;;;;;;;;;5092183;28;20040;-70
2022/07/09 06:28:08;;;;;;;11.15;4.15;;;;;;;;;;5096722;28;20048;-70
2022/07/09 06:30:34;;;;;;;9.85;3.50;;;;;;;;;;5087857;28;20095;-71
2022/07/09 06:33:01;;;;;;;14.00;3.83;;;;;;;;;;5086913;28;20152;-70
2022/07/09 06:35:27;;;;;;;10.93;4.00;;;;;;;;;;5086105;28;20403;-70
2022/07/09 06:37:53;;;;;;;7.60;3.13;;;;;;;;;;5094057;28;20109;-70
2022/07/09 06:40:19;;;;;;;9.30;3.25;;;;;;;;;;5095602;28;20036;-71
2022/07/09 06:42:45;;;;;;;9.48;3.55;;;;;;;;;;5088786;28;20055;-70
2022/07/09 06:45:11;;;;;;;8.77;3.60;;;;;;;;;;5086065;28;20051;-70
2022/07/09 06:47:37;;;;;;;12.00;3.45;;;;;;;;;;5086220;28;20108;-70
2022/07/09 06:50:03;;;;;;;11.98;3.53;;;;;;;;;;5089706;28;20036;-70
2022/07/09 06:52:30;;;;;;;13.50;3.90;;;;;;;;;;5093029;28;20060;-69
2022/07/09 06:54:56;;;;;;;7.18;3.00;;;;;;;;;;5097960;28;20052;-69
2022/07/09 06:57:22;;;;;;;7.63;3.08;;;;;;;;;;5110265;28;20051;-70
2022/07/09 06:59:48;;;;;;;6.07;2.25;;;;;;;;;;5103932;28;20044;-70
2022/07/09 07:02:17;;;;;;;10.45;2.90;;;;;;;;;;5087926;28;20055;-69
2022/07/09 07:04:43;;;;;;;7.63;2.90;;;;;;;;;;5087549;28;20094;-70
2022/07/09 07:07:09;;;;;;;9.55;3.70;;;;;;;;;;5092482;28;20044;-69
2022/07/09 07:09:36;;;;;;;9.73;3.35;;;;;;;;;;5102527;28;20044;-70
2022/07/09 07:12:03;;;;;;;7.13;2.80;;;;;;;;;;5092809;28;20058;-70
2022/07/09 07:14:29;;;;;;;8.65;2.78;;;;;;;;;;5094984;28;20036;-70
2022/07/09 07:16:55;;;;;;;12.52;3.28;;;;;;;;;;5102909;28;20146;-70
2022/07/09 07:19:21;;;;;;;6.28;2.47;;;;;;;;;;5102877;28;20037;-69
2022/07/09 07:21:50;;;;;;;9.05;2.25;;;;;;;;;;5101161;28;20090;-70
2022/07/09 07:24:16;;;;;;;5.15;1.90;;;;;;;;;;5102748;28;20032;-70
2022/07/09 07:26:42;;;;;;;8.18;2.00;;;;;;;;;;5103032;28;20042;-69
2022/07/09 07:29:09;;;;;;;7.65;2.13;;;;;;;;;;5104335;28;20112;-69
2022/07/09 07:31:35;;;;;;;6.32;1.60;;;;;;;;;;5095428;28;20050;-69
2022/07/09 07:34:01;;;;;;;7.60;1.85;;;;;;;;;;5107919;28;20075;-69
2022/07/09 07:36:27;;;;;;;9.75;2.33;;;;;;;;;;5106281;28;20067;-70
2022/07/09 07:38:54;;;;;;;6.55;2.20;;;;;;;;;;5105042;28;20139;-69
2022/07/09 07:41:20;;;;;;;10.15;2.65;;;;;;;;;;5098292;28;20070;-69
2022/07/09 07:43:47;;;;;;;8.63;1.80;;;;;;;;;;5101416;28;20070;-69
2022/07/09 07:46:13;;;;;;;10.88;2.22;;;;;;;;;;5106193;28;20040;-69
2022/07/09 07:48:41;;;;;;;7.60;2.55;;;;;;;;;;5105292;28;20032;-69
2022/07/09 07:51:08;;;;;;;11.20;2.90;;;;;;;;;;5092668;28;20067;-69
2022/07/09 07:53:35;;;;;;;7.15;1.70;;;;;;;;;;5104415;28;20084;-69
2022/07/09 07:56:01;;;;;;;7.72;2.38;;;;;;;;;;5103165;28;20095;-69
2022/07/09 07:58:28;;;;;;;6.05;1.85;;;;;;;;;;5099520;28;20047;-69
2022/07/09 08:00:54;;;;;;;6.35;2.15;;;;;;;;;;5096080;28;20048;-69
2022/07/09 08:03:20;;;;;;;6.32;1.52;;;;;;;;;;5097018;28;20040;-69
2022/07/09 08:05:46;;;;;;;9.48;2.00;;;;;;;;;;5093474;28;20100;-69
2022/07/09 08:08:13;;;;;;;10.27;1.67;;;;;;;;;;5096638;28;20482;-70
2022/07/09 08:10:39;;;;;;;5.75;1.70;;;;;;;;;;5106664;28;20079;-70
2022/07/09 08:13:05;;;;;;;10.77;1.88;;;;;;;;;;5088329;28;20442;-69
2022/07/09 08:15:31;;;;;;;6.25;2.03;;;;;;;;;;5095848;28;20057;-69
2022/07/09 08:17:57;;;;;;;8.85;2.78;;;;;;;;;;5098955;28;20093;-69
2022/07/09 08:20:23;;;;;;;4.50;1.48;;;;;;;;;;5086847;28;20046;-69
2022/07/09 08:22:50;;;;;;;4.32;1.40;;;;;;;;;;5104703;28;20072;-69
2022/07/09 08:25:16;;;;;;;7.50;2.22;;;;;;;;;;5095342;28;20059;-70
2022/07/09 08:27:42;;;;;;;6.80;1.55;;;;;;;;;;5103166;28;20048;-70
2022/07/09 08:30:08;;;;;;;8.57;2.20;;;;;;;;;;5100100;28;20040;-70
2022/07/09 08:32:34;;;;;;;6.05;1.98;;;;;;;;;;5102623;28;20078;-69
2022/07/09 08:35:00;;;;;;;6.93;1.60;;;;;;;;;;5098727;28;20596;-69
2022/07/09 08:37:26;;;;;;;9.18;1.60;;;;;;;;;;5096422;28;20135;-69
2022/07/09 08:39:52;;;;;;;12.75;1.55;;;;;;;;;;5103880;28;20052;-69
2022/07/09 08:42:19;;;;;;;11.85;2.05;;;;;;;;;;5092515;28;20040;-69
2022/07/09 08:44:47;;;;;;;12.18;2.10;;;;;;;;;;5097152;28;20051;-69
2022/07/09 08:47:15;;;;;;;8.38;1.77;;;;;;;;;;5105115;28;20048;-69
2022/07/09 08:49:42;;;;;;;15.35;2.63;;;;;;;;;;5105272;28;20123;-69
2022/07/09 08:52:08;;;;;;;9.10;1.95;;;;;;;;;;5100396;28;20047;-69
2022/07/09 08:54:37;;;;;;;3.25;1.30;;;;;;;;;;5104633;28;20048;-69
2022/07/09 08:57:04;;;;;;;8.30;2.95;;;;;;;;;;5101419;28;20048;-69
2022/07/09 08:59:30;;;;;;;10.73;2.03;;;;;;;;;;5104296;28;20048;-69
2022/07/09 09:01:56;;;;;;;6.97;1.95;;;;;;;;;;5103073;28;20050;-69
2022/07/09 09:04:23;;;;;;;3.13;1.38;;;;;;;;;;5104640;28;20124;-70
2022/07/09 09:06:50;;;;;;;8.10;1.92;;;;;;;;;;5103616;28;20151;-70
2022/07/09 09:09:19;;;;;;;6.75;1.67;;;;;;;;;;5104433;28;20063;-70
2022/07/09 09:11:49;;;;;;;9.15;2.67;;;;;;;;;;5103634;28;20040;-70
2022/07/09 09:14:20;;;;;;;3.28;1.33;;;;;;;;;;5104752;28;20298;-70
2022/07/09 09:16:47;;;;;;;6.90;1.75;;;;;;;;;;5109640;28;20039;-71
2022/07/09 09:19:14;;;;;;;9.93;1.83;;;;;;;;;;5104786;28;20492;-69
2022/07/09 09:21:40;;;;;;;8.13;2.03;;;;;;;;;;5099817;28;20052;-70
2022/07/09 09:24:07;;;;;;;7.72;1.95;;;;;;;;;;5106362;28;20071;-70
2022/07/09 09:26:35;;;;;;;9.50;1.60;;;;;;;;;;5118208;28;20036;-70
2022/07/09 09:29:02;;;;;;;9.20;2.17;;;;;;;;;;5087245;28;20171;-69
2022/07/09 09:31:28;;;;;;;8.80;1.83;;;;;;;;;;5093639;28;20097;-70
2022/07/09 09:33:58;;;;;;;7.97;1.70;;;;;;;;;;5092266;28;20052;-70
2022/07/09 09:36:43;;;;;;;8.88;1.85;;;;;;;;;;5091896;28;20102;-70
2022/07/09 09:39:15;;;;;;;9.00;1.80;;;;;;;;;;5086466;28;20048;-70
2022/07/09 09:41:42;;;;;;;6.43;1.77;;;;;;;;;;5093784;28;20454;-70
2022/07/09 09:44:12;;;;;;;6.63;1.35;;;;;;;;;;5101093;28;20101;-71
2022/07/09 09:46:39;;;;;;;9.90;1.85;;;;;;;;;;5092366;28;20040;-70
2022/07/09 09:49:07;;;;;;;4.27;1.40;;;;;;;;;;5095479;28;20054;-70
2022/07/09 09:51:38;;;;;;;7.28;1.67;;;;;;;;;;5105018;28;20044;-70
2022/07/09 09:54:05;;;;;;;7.55;1.92;;;;;;;;;;5103709;28;20048;-70
2022/07/09 09:56:32;;;;;;;3.67;1.37;;;;;;;;;;5103938;28;20044;-69
2022/07/09 09:58:58;;;;;;;;;;;;;;;;;;5099278;28;20306;-69
2022/07/09 10:01:25;;;;;;;6.05;1.55;;;;;;;;;;5103594;28;19986;-69
2022/07/09 10:03:52;;;;;;;13.15;1.92;;;;;;;;;;5095735;28;20073;-70
2022/07/09 10:06:18;;;;;;;8.13;1.60;;;;;;;;;;5102591;28;20047;-69
2022/07/09 10:08:44;;;;;;;9.68;1.90;;;;;;;;;;5096943;28;20094;-70
2022/07/09 10:11:10;;;;;;;7.40;2.10;;;;;;;;;;5089985;28;20083;-69
2022/07/09 10:13:50;;;;;;;7.70;1.80;;;;;;;;;;5086758;28;20056;-69
2022/07/09 10:16:16;;;;;;;11.05;1.95;;;;;;;;;;5084237;28;20061;-68
2022/07/09 10:18:52;;;;;;;7.07;1.45;;;;;;;;;;5086499;28;20047;-68
2022/07/09 10:21:18;;;;;;;14.35;2.08;;;;;;;;;;5092253;28;20086;-69
2022/07/09 10:23:50;;;;;;;8.60;2.15;;;;;;;;;;5096023;28;20486;-70
2022/07/09 10:26:17;;;;;;;8.70;1.88;;;;;;;;;;5098934;28;20041;-70
2022/07/09 10:28:43;;;;;;;8.48;1.83;;;;;;;;;;5102221;28;20048;-71
2022/07/09 10:31:09;;;;;;;12.20;2.20;;;;;;;;;;5099868;28;20398;-72
2022/07/09 10:33:35;;;;;;;10.45;2.08;;;;;;;;;;5089884;28;20060;-71
2022/07/09 10:36:11;;;;;;;9.13;2.00;;;;;;;;;;5090336;28;20063;-67
2022/07/09 10:38:40;;;;;;;11.02;1.75;;;;;;;;;;5100187;28;20040;-67
2022/07/09 10:41:07;;;;;;;13.93;2.08;;;;;;;;;;5095066;28;20388;-67
2022/07/09 10:43:47;;;;;;;7.97;1.55;;;;;;;;;;5096935;28;20052;-68
2022/07/09 10:46:14;;;;;;;9.15;1.80;;;;;;;;;;5096952;28;20044;-67
2022/07/09 10:48:41;;;;;;;6.55;1.65;;;;;;;;;;5093321;28;20058;-67
2022/07/09 10:51:07;;;;;;;6.43;1.92;;;;;;;;;;5098107;28;20044;-67
2022/07/09 10:53:33;;;;;;;7.07;1.25;;;;;;;;;;5086559;28;20059;-67
2022/07/09 10:56:00;;;;;;;9.82;1.52;;;;;;;;;;5092937;28;20044;-67
2022/07/09 10:58:28;;;;;;;5.47;1.08;;;;;;;;;;5098311;28;20081;-66
2022/07/09 11:00:58;;;;;;;9.48;2.45;;;;;;;;;;5087151;28;20119;-66
2022/07/09 11:03:29;;;;;;;6.03;1.10;;;;;;;;;;5086213;28;20108;-67
2022/07/09 11:05:55;;;;;;;3.67;1.42;;;;;;;;;;5094903;28;20059;-66
2022/07/09 11:08:21;;;;;;;8.32;1.65;;;;;;;;;;5095404;28;20131;-67
2022/07/09 11:10:47;;;;;;;7.32;1.40;;;;;;;;;;5099791;28;20124;-66
2022/07/09 11:13:13;;;;;;;6.65;1.00;;;;;;;;;;5104552;28;20048;-66
2022/07/09 11:15:39;;;;;;;6.47;1.63;;;;;;;;;;5088601;28;20048;-66
2022/07/09 11:18:07;;;;;;;8.93;1.60;;;;;;;;;;5087941;28;20087;-66
2022/07/09 11:20:33;;;;;;;;;;;;;;;;;;5086824;28;20051;-66
2022/07/09 11:23:00;;;;;;;8.38;1.23;;;;;;;;;;5084819;28;19921;-66
2022/07/09 11:25:26;;;;;;;2.13;0.73;;;;;;;;;;5093341;28;20147;-66
2022/07/09 11:27:56;;;;;;;5.07;0.95;;;;;;;;;;5085286;28;20057;-66
2022/07/09 11:30:23;;;;;;;8.68;1.52;;;;;;;;;;5088107;28;20104;-66
2022/07/09 11:32:49;;;;;;;5.97;1.15;;;;;;;;;;5088859;28;20056;-66
2022/07/09 11:35:28;;;;;;;4.90;1.13;;;;;;;;;;5090347;28;20067;-66
2022/07/09 11:37:55;;;;;;;5.55;1.20;;;;;;;;;;5091177;28;20510;-66
2022/07/09 11:40:21;;;;;;;5.45;1.30;;;;;;;;;;5093165;28;20040;-66
2022/07/09 11:42:49;;;;;;;5.05;0.93;;;;;;;;;;5110159;28;20040;-66
2022/07/09 11:45:15;;;;;;;4.47;0.82;;;;;;;;;;5100363;28;20098;-68
2022/07/09 11:47:41;;;;;;;6.60;1.15;;;;;;;;;;5099538;28;20040;-62
2022/07/09 11:50:12;;;;;;;6.93;1.20;;;;;;;;;;5104599;28;20051;-63
2022/07/09 11:52:48;;;;;;;5.45;1.25;;;;;;;;;;5106042;28;20385;-63
2022/07/09 11:55:16;;;;;;;3.55;0.93;;;;;;;;;;5102492;28;20142;-63
2022/07/09 11:57:51;;;;;;;4.82;1.10;;;;;;;;;;5096714;28;20071;-63
2022/07/09 12:00:25;;;;;;;4.45;1.00;;;;;;;;;;5105738;28;20047;-63
2022/07/09 12:02:51;;;;;;;7.65;1.45;;;;;;;;;;5105322;28;20083;-63
2022/07/09 12:05:26;;;;;;;5.17;1.57;;;;;;;;;;5100248;28;20079;-63
2022/07/09 12:07:52;;;;;;;3.85;0.82;;;;;;;;;;5100385;28;20052;-63
2022/07/09 12:10:25;;;;;;;5.73;1.50;;;;;;;;;;5110539;28;20044;-63
2022/07/09 12:12:51;;;;;;;4.28;1.00;;;;;;;;;;5110053;28;20406;-63
2022/07/09 12:15:17;;;;;;;3.25;0.90;;;;;;;;;;5100313;28;20053;-63
2022/07/09 12:17:43;;;;;;;3.15;0.75;;;;;;;;;;5092214;28;20040;-63
2022/07/09 12:20:10;;;;;;;2.65;0.90;;;;;;;;;;5096833;28;20071;-63
2022/07/09 12:22:36;;;;;;;5.68;1.38;;;;;;;;;;5090139;28;20075;-63
2022/07/09 12:25:03;;;;;;;5.82;1.23;;;;;;;;;;5095013;28;20045;-63
2022/07/09 12:27:29;;;;;;;5.60;0.98;;;;;;;;;;5085885;28;20049;-64
2022/07/09 12:29:55;;;;;;;5.47;1.00;;;;;;;;;;5100136;28;20056;-64
2022/07/09 12:32:21;;;;;;;4.07;0.77;;;;;;;;;;5094889;28;20047;-63
2022/07/09 12:34:47;;;;;;;5.60;1.70;;;;;;;;;;5090913;28;20050;-63
2022/07/09 12:37:13;;;;;;;5.70;1.20;;;;;;;;;;5084177;28;20041;-64
2022/07/09 12:39:39;;;;;;;5.68;0.93;;;;;;;;;;5084513;28;20316;-63
2022/07/09 12:42:05;;;;;;;4.47;1.00;;;;;;;;;;5091975;28;20051;-62
2022/07/09 12:44:31;;;;;;;4.18;0.85;;;;;;;;;;5091969;28;20092;-63
2022/07/09 12:46:57;;;;;;;5.72;1.20;;;;;;;;;;5090483;28;20060;-63
2022/07/09 12:49:23;;;;;;;8.30;1.38;;;;;;;;;;5095279;28;20044;-63
2022/07/09 12:51:50;;;;;;;7.38;1.42;;;;;;;;;;5094367;28;20047;-63
2022/07/09 12:54:16;;;;;;;5.60;1.05;;;;;;;;;;5093020;28;20048;-63
2022/07/09 12:56:42;;;;;;;5.28;1.08;;;;;;;;;;5101645;28;20504;-63
2022/07/09 12:59:08;;;;;;;6.40;1.67;;;;;;;;;;5092856;28;20036;-63
2022/07/09 13:01:34;;;;;;;4.32;1.20;;;;;;;;;;5100321;28;20048;-63
2022/07/09 13:04:00;;;;;;;5.10;0.90;;;;;;;;;;5093346;28;20040;-63
2022/07/09 13:06:32;;;;;;;5.28;1.50;;;;;;;;;;5096639;28;20051;-63
2022/07/09 13:08:59;;;;;;;5.78;1.15;;;;;;;;;;5096514;28;20470;-63
2022/07/09 13:11:25;;;;;;;5.43;1.73;;;;;;;;;;5104851;28;20055;-63
2022/07/09 13:13:51;;;;;;;5.85;1.08;;;;;;;;;;5104340;28;20127;-63
2022/07/09 13:16:18;;;;;;;5.72;1.15;;;;;;;;;;5102234;28;20043;-63
2022/07/09 13:18:44;;;;;;;3.00;0.80;;;;;;;;;;5091336;28;20036;-63
2022/07/09 13:21:10;;;;;;;5.40;1.27;;;;;;;;;;5096013;28;20052;-64
2022/07/09 13:23:36;;;;;;;4.78;1.13;;;;;;;;;;5103951;28;20040;-63
2022/07/09 13:26:02;;;;;;;6.35;1.55;;;;;;;;;;5104461;28;20135;-63
2022/07/09 13:28:29;;;;;;;6.70;1.73;;;;;;;;;;5106889;28;20040;-64
2022/07/09 13:30:55;;;;;;;5.37;1.03;;;;;;;;;;5100544;28;20059;-64
2022/07/09 13:33:21;;;;;;;4.67;0.87;;;;;;;;;;5103803;28;20051;-64
2022/07/09 13:35:47;;;;;;;3.72;1.13;;;;;;;;;;5104275;28;20032;-63
2022/07/09 13:38:14;;;;;;;3.78;1.00;;;;;;;;;;5108175;28;20063;-64
2022/07/09 13:40:40;;;;;;;9.55;1.17;;;;;;;;;;5106178;28;20044;-64
2022/07/09 13:43:06;;;;;;;3.17;1.00;;;;;;;;;;5104449;28;20070;-63
2022/07/09 13:45:32;;;;;;;4.28;1.15;;;;;;;;;;5104401;28;20040;-64
2022/07/09 13:47:58;;;;;;;4.70;1.08;;;;;;;;;;5086532;28;20048;-64
2022/07/09 13:50:24;;;;;;;5.18;1.25;;;;;;;;;;5093979;28;20045;-63
2022/07/09 13:52:50;;;;;;;6.82;1.60;;;;;;;;;;5088120;28;20104;-63
2022/07/09 13:55:17;;;;;;;4.70;1.02;;;;;;;;;;5084011;28;20035;-61
2022/07/09 13:57:43;;;;;;;5.75;1.10;;;;;;;;;;5089899;28;20047;-67
2022/07/09 14:00:10;;;;;;;4.38;0.95;;;;;;;;;;5089468;28;20040;-68
2022/07/09 14:02:36;;;;;;;5.50;1.58;;;;;;;;;;5100213;28;20496;-68
2022/07/09 14:05:03;;;;;;;9.45;1.65;;;;;;;;;;5092506;28;20070;-68
2022/07/09 14:07:30;;;;;;;6.72;1.20;;;;;;;;;;5113187;28;20064;-68
2022/07/09 14:09:56;;;;;;;6.03;1.30;;;;;;;;;;5087744;28;20104;-67
2022/07/09 14:12:23;;;;;;;8.00;1.17;;;;;;;;;;5103365;28;20054;-67
2022/07/09 14:14:50;;;;;;;4.95;1.45;;;;;;;;;;5094620;28;20070;-67
2022/07/09 14:17:16;;;;;;;7.70;1.67;;;;;;;;;;5098982;28;20095;-68
2022/07/09 14:19:43;;;;;;;5.47;1.30;;;;;;;;;;5100849;28;20487;-67
2022/07/09 14:22:09;;;;;;;8.82;1.10;;;;;;;;;;5087474;28;20039;-68
2022/07/09 14:24:35;;;;;;;5.57;1.20;;;;;;;;;;5086495;28;20083;-67
2022/07/09 14:27:02;;;;;;;9.80;1.40;;;;;;;;;;5088450;28;20036;-68
2022/07/09 14:29:28;;;;;;;7.38;1.40;;;;;;;;;;5110434;28;20051;-67
2022/07/09 14:31:54;;;;;;;4.97;1.17;;;;;;;;;;5112120;28;20386;-68
2022/07/09 14:34:21;;;;;;;5.95;1.20;;;;;;;;;;5087601;28;20111;-67